Time;durP1;ratioP1;P1;durP2;ratioP2;P2;SDS_P1;SDS_P2;PMS_P1;PMS_P2;Temp;Humidity;BMP_temperature;BMP_pressure;BME280_temperature;BME280_humidity;BME280_pressure;Samples;Min_cycle;Max_cycle;Signal;HPM_P1;HPM_P2
2023/01/20 00:02:07;;;;;;;;;;;20.10;85.40;;;;;;5093711;28;19908;-46
2023/01/20 00:04:32;;;;;;;;;;;20.10;85.80;;;;;;5094023;28;19944;-47
2023/01/20 00:06:58;;;;;;;;;;;20.00;86.00;;;;;;5093979;28;20350;-45
2023/01/20 00:09:23;;;;;;;;;;;19.90;86.20;;;;;;5093828;28;19966;-46
2023/01/20 00:11:49;;;;;;;;;;;19.90;86.40;;;;;;5094967;28;19912;-47
2023/01/20 00:14:14;;;;;;;;;;;19.80;86.60;;;;;;5097521;28;19988;-50
2023/01/20 00:16:40;;;;;;;;;;;19.90;86.70;;;;;;5098153;28;19908;-48
2023/01/20 00:19:06;;;;;;;;;;;20.00;86.40;;;;;;5097788;28;19912;-48
2023/01/20 00:21:33;;;;;;;;;;;20.20;85.90;;;;;;5097471;28;19908;-47
2023/01/20 00:23:59;;;;;;;;;;;20.60;84.60;;;;;;5097630;28;20373;-48
2023/01/20 00:26:24;;;;;;;;;;;20.80;83.80;;;;;;5097399;28;19911;-46
2023/01/20 00:28:52;;;;;;;;;;;21.00;83.20;;;;;;5097914;28;19908;-47
2023/01/20 00:31:19;;;;;;;;;;;21.00;82.90;;;;;;5097320;28;20278;-46
2023/01/20 00:33:46;;;;;;;;;;;21.00;83.00;;;;;;5097436;28;20240;-46
2023/01/20 00:36:12;;;;;;;;;;;20.90;83.30;;;;;;5097256;28;19964;-45
2023/01/20 00:38:38;;;;;;;;;;;20.80;83.60;;;;;;5097815;28;20014;-47
2023/01/20 00:41:04;;;;;;;;;;;20.70;83.70;;;;;;5097135;28;19915;-46
2023/01/20 00:43:29;;;;;;;;;;;20.60;84.00;;;;;;5097098;28;19956;-49
2023/01/20 00:45:55;;;;;;;;;;;20.50;84.80;;;;;;5097250;28;19912;-45
2023/01/20 00:48:20;;;;;;;;;;;20.40;84.90;;;;;;5096888;28;19908;-47
2023/01/20 00:50:45;;;;;;;;;;;20.30;85.10;;;;;;5078968;28;19919;-46
2023/01/20 00:53:11;;;;;;;;;;;20.20;85.30;;;;;;5078949;28;19916;-47
2023/01/20 00:55:36;;;;;;;;;;;20.10;85.60;;;;;;5096904;28;19908;-47
2023/01/20 00:58:02;;;;;;;;;;;20.10;85.70;;;;;;5078963;28;19912;-47
2023/01/20 01:00:27;;;;;;;;;;;20.10;85.80;;;;;;5096781;28;20282;-47
2023/01/20 01:02:53;;;;;;;;;;;20.20;85.70;;;;;;5097347;28;19908;-46
2023/01/20 01:05:18;;;;;;;;;;;20.30;85.40;;;;;;5097249;28;20258;-48
2023/01/20 01:07:44;;;;;;;;;;;20.50;85.40;;;;;;5096618;28;19969;-46
2023/01/20 01:10:09;;;;;;;;;;;20.70;84.40;;;;;;5096555;28;19919;-48
2023/01/20 01:12:35;;;;;;;;;;;20.90;83.80;;;;;;5096473;28;19989;-45
2023/01/20 01:15:00;;;;;;;;;;;21.00;83.60;;;;;;5096484;28;19916;-44
2023/01/20 01:17:26;;;;;;;;;;;20.90;83.50;;;;;;5096751;28;19908;-47
2023/01/20 01:19:51;;;;;;;;;;;20.90;83.50;;;;;;5096673;28;20346;-44
2023/01/20 01:22:17;;;;;;;;;;;20.80;83.90;;;;;;5096140;28;19912;-45
2023/01/20 01:24:43;;;;;;;;;;;20.70;83.70;;;;;;5096306;28;19961;-46
2023/01/20 01:27:09;;;;;;;;;;;20.60;84.40;;;;;;5096582;28;19908;-48
2023/01/20 01:29:34;;;;;;;;;;;20.50;84.90;;;;;;5096498;28;20011;-49
2023/01/20 01:32:00;;;;;;;;;;;20.40;85.20;;;;;;5078191;28;19919;-48
2023/01/20 01:34:25;;;;;;;;;;;20.30;85.10;;;;;;5096381;28;19916;-46
2023/01/20 01:36:51;;;;;;;;;;;20.30;86.00;;;;;;5096236;28;19924;-47
2023/01/20 01:39:16;;;;;;;;;;;20.30;85.40;;;;;;5096008;28;19931;-47
2023/01/20 01:41:42;;;;;;;;;;;20.40;85.40;;;;;;5095992;28;19995;-46
2023/01/20 01:44:09;;;;;;;;;;;20.50;85.10;;;;;;5077739;28;19914;-50
2023/01/20 01:46:35;;;;;;;;;;;20.60;84.60;;;;;;5078046;28;19915;-48
2023/01/20 01:49:03;;;;;;;;;;;20.80;84.50;;;;;;5095736;28;19908;-47
2023/01/20 01:51:32;;;;;;;;;;;20.90;84.10;;;;;;5095992;28;19919;-47
2023/01/20 01:54:01;;;;;;;;;;;20.80;84.50;;;;;;5095706;28;19919;-50
2023/01/20 01:56:28;;;;;;;;;;;20.80;84.10;;;;;;5095910;28;20375;-47
2023/01/20 01:58:56;;;;;;;;;;;20.70;84.10;;;;;;5095636;28;19908;-46
2023/01/20 02:01:21;;;;;;;;;;;20.60;84.50;;;;;;5095885;28;19908;-48
2023/01/20 02:03:51;;;;;;;;;;;20.60;84.40;;;;;;5095500;28;19915;-47
2023/01/20 02:06:17;;;;;;;;;;;20.40;84.80;;;;;;5095716;28;19908;-49
2023/01/20 02:08:42;;;;;;;;;;;20.40;85.00;;;;;;5095714;28;19909;-45
2023/01/20 02:11:08;;;;;;;;;;;20.20;85.40;;;;;;5095328;28;19918;-46
2023/01/20 02:13:34;;;;;;;;;;;20.10;85.70;;;;;;5077222;28;19912;-45
2023/01/20 02:16:05;;;;;;;;;;;20.10;85.80;;;;;;5095293;28;19908;-46
2023/01/20 02:18:47;;;;;;;;;;;20.10;86.20;;;;;;5095231;28;19908;-49
2023/01/20 02:21:29;;;;;;;;;;;20.00;86.20;;;;;;5095833;28;19943;-47
2023/01/20 02:24:30;;;;;;;;;;;20.00;86.00;;;;;;5095434;28;19908;-45
2023/01/20 02:26:59;;;;;;;;;;;20.10;86.00;;;;;;5032742;28;19920;-48
2023/01/20 02:29:49;;;;;;;;;;;20.30;85.70;;;;;;5083521;28;19953;-49
2023/01/20 02:32:20;;;;;;;;;;;20.60;84.70;;;;;;5094941;28;19912;-46
2023/01/20 02:34:45;;;;;;;;;;;20.70;84.40;;;;;;5094387;28;19916;-50
2023/01/20 02:37:13;;;;;;;;;;;20.70;84.20;;;;;;5094626;28;19920;-45
2023/01/20 02:39:45;;;;;;;;;;;20.70;84.40;;;;;;5094814;28;19908;-46
2023/01/20 02:42:17;;;;;;;;;;;20.60;84.50;;;;;;5095147;28;19912;-46
2023/01/20 02:44:54;;;;;;;;;;;20.50;84.40;;;;;;5094719;28;19908;-49
2023/01/20 02:47:20;;;;;;;;;;;20.50;85.10;;;;;;5094629;28;19908;-48
2023/01/20 02:49:53;;;;;;;;;;;20.30;85.00;;;;;;5094927;28;20407;-46
2023/01/20 02:52:21;;;;;;;;;;;20.30;84.20;;;;;;5094567;28;20013;-45
2023/01/20 02:54:48;;;;;;;;;;;20.20;84.70;;;;;;5093548;28;19954;-45
2023/01/20 02:57:16;;;;;;;;;;;20.20;85.10;;;;;;5094701;28;19974;-47
2023/01/20 02:59:43;;;;;;;;;;;20.20;85.60;;;;;;5094764;28;19984;-45
2023/01/20 03:02:11;;;;;;;;;;;20.20;85.30;;;;;;5076253;28;20431;-48
2023/01/20 03:04:39;;;;;;;;;;;20.40;85.00;;;;;;5095118;28;20006;-45
2023/01/20 03:07:06;;;;;;;;;;;20.60;84.40;;;;;;5094635;28;19908;-46
2023/01/20 03:09:38;;;;;;;;;;;20.80;83.80;;;;;;5107741;28;19912;-47
2023/01/20 03:12:08;;;;;;;;;;;21.10;83.30;;;;;;5098562;28;19916;-45
2023/01/20 03:14:33;;;;;;;;;;;21.20;83.10;;;;;;5094235;28;19912;-46
2023/01/20 03:17:00;;;;;;;;;;;21.20;82.40;;;;;;5076725;28;19915;-44
2023/01/20 03:19:25;;;;;;;;;;;21.20;82.90;;;;;;5094161;28;20433;-46
2023/01/20 03:21:51;;;;;;;;;;;21.10;83.20;;;;;;5094167;28;19912;-45
2023/01/20 03:24:16;;;;;;;;;;;20.90;83.50;;;;;;5094788;28;19971;-46
2023/01/20 03:26:42;;;;;;;;;;;20.80;83.80;;;;;;5094324;28;19908;-48
2023/01/20 03:29:10;;;;;;;;;;;20.70;83.40;;;;;;5093247;28;19912;-45
2023/01/20 03:31:38;;;;;;;;;;;20.60;84.10;;;;;;5094298;28;19963;-46
2023/01/20 03:34:09;;;;;;;;;;;20.50;84.60;;;;;;5076056;28;19919;-45
2023/01/20 03:36:36;;;;;;;;;;;20.40;84.80;;;;;;5094089;28;19920;-49
2023/01/20 03:39:01;;;;;;;;;;;20.30;84.80;;;;;;5091935;28;19912;-45
2023/01/20 03:41:45;;;;;;;;;;;20.20;84.50;;;;;;5094223;28;19915;-50
2023/01/20 03:44:16;;;;;;;;;;;20.30;85.20;;;;;;5094114;28;19908;-47
2023/01/20 03:46:52;;;;;;;;;;;20.50;84.60;;;;;;5096942;28;20083;-47
2023/01/20 03:49:21;;;;;;;;;;;20.70;84.50;;;;;;5098391;28;19908;-51
2023/01/20 03:51:55;;;;;;;;;;;21.00;83.50;;;;;;5098238;28;19918;-46
2023/01/20 03:54:23;;;;;;;;;;;21.30;82.80;;;;;;5098087;28;19912;-48
2023/01/20 03:56:52;;;;;;;;;;;21.40;82.50;;;;;;5097939;28;19912;-45
2023/01/20 03:59:19;;;;;;;;;;;21.50;82.50;;;;;;5098276;28;19915;-46
2023/01/20 04:01:44;;;;;;;;;;;21.30;82.10;;;;;;5098035;28;20355;-44
2023/01/20 04:04:13;;;;;;;;;;;21.20;82.70;;;;;;5096028;28;19920;-46
2023/01/20 04:06:40;;;;;;;;;;;21.00;83.10;;;;;;5096987;28;19912;-46
2023/01/20 04:09:09;;;;;;;;;;;20.90;83.20;;;;;;5095995;28;19912;-47
2023/01/20 04:11:34;;;;;;;;;;;20.80;83.80;;;;;;5095884;28;19981;-47
2023/01/20 04:14:00;;;;;;;;;;;20.70;84.90;;;;;;5095462;28;19916;-47
2023/01/20 04:16:25;;;;;;;;;;;20.60;84.40;;;;;;5096072;28;19912;-46
2023/01/20 04:18:51;;;;;;;;;;;20.40;84.70;;;;;;5095536;28;19908;-45
2023/01/20 04:21:23;;;;;;;;;;;20.40;84.70;;;;;;5095986;28;19915;-48
2023/01/20 04:23:51;;;;;;;;;;;20.30;85.00;;;;;;5097724;28;19908;-47
2023/01/20 04:26:17;;;;;;;;;;;20.20;85.20;;;;;;5097955;28;20003;-47
2023/01/20 04:28:42;;;;;;;;;;;20.20;85.00;;;;;;5097602;28;20008;-44
2023/01/20 04:31:08;;;;;;;;;;;20.40;85.00;;;;;;5097143;28;19912;-45
2023/01/20 04:33:37;;;;;;;;;;;20.50;84.60;;;;;;5097222;28;19919;-47
2023/01/20 04:36:02;;;;;;;;;;;20.80;83.70;;;;;;5096811;28;20274;-47
2023/01/20 04:38:28;;;;;;;;;;;21.00;83.20;;;;;;5097408;28;19995;-46
2023/01/20 04:40:53;;;;;;;;;;;21.00;82.90;;;;;;5097118;28;19948;-47
2023/01/20 04:43:19;;;;;;;;;;;21.10;82.90;;;;;;5097138;28;20393;-46
2023/01/20 04:45:44;;;;;;;;;;;21.00;83.20;;;;;;5097256;28;19908;-46
2023/01/20 04:48:10;;;;;;;;;;;20.90;83.50;;;;;;5079121;28;19946;-50
2023/01/20 04:50:39;;;;;;;;;;;20.80;83.80;;;;;;5097086;28;19922;-48
2023/01/20 04:53:04;;;;;;;;;;;20.60;83.90;;;;;;5097140;28;19913;-50
2023/01/20 04:55:31;;;;;;;;;;;20.60;84.30;;;;;;5097381;28;20262;-46
2023/01/20 04:57:56;;;;;;;;;;;20.40;84.40;;;;;;5096036;28;19912;-47
2023/01/20 05:00:22;;;;;;;;;;;20.30;84.80;;;;;;5078687;28;20072;-48
2023/01/20 05:02:47;;;;;;;;;;;20.30;85.00;;;;;;5093148;28;19912;-45
2023/01/20 05:05:12;;;;;;;;;;;20.20;84.60;;;;;;5099195;28;20251;-49
2023/01/20 05:07:38;;;;;;;;;;;20.20;85.20;;;;;;5098616;28;19912;-47
2023/01/20 05:10:04;;;;;;;;;;;20.20;85.40;;;;;;5094022;28;19912;-49
2023/01/20 05:12:29;;;;;;;;;;;20.20;85.00;;;;;;5095494;28;20050;-46
2023/01/20 05:14:55;;;;;;;;;;;20.40;84.90;;;;;;5095420;28;19920;-46
2023/01/20 05:17:20;;;;;;;;;;;20.60;85.20;;;;;;5096226;28;19912;-45
2023/01/20 05:19:46;;;;;;;;;;;20.60;82.00;;;;;;5104600;28;19919;-46
2023/01/20 05:22:11;;;;;;;;;;;20.80;83.70;;;;;;5108009;28;19943;-44
2023/01/20 05:24:37;;;;;;;;;;;20.80;84.50;;;;;;5102647;28;19912;-46
2023/01/20 05:27:03;;;;;;;;;;;20.80;83.90;;;;;;5094820;28;19912;-47
2023/01/20 05:29:28;;;;;;;;;;;20.70;84.10;;;;;;5094943;28;19912;-45
2023/01/20 05:31:54;;;;;;;;;;;20.60;84.50;;;;;;5105465;28;20003;-45
2023/01/20 05:34:19;;;;;;;;;;;20.60;84.60;;;;;;5093857;28;19938;-47
2023/01/20 05:36:44;;;;;;;;;;;20.40;84.00;;;;;;5116544;28;19926;-45
2023/01/20 05:39:10;;;;;;;;;;;20.30;85.00;;;;;;5116586;28;20052;-48
2023/01/20 05:41:35;;;;;;;;;;;20.30;85.40;;;;;;5116494;28;19919;-45
2023/01/20 05:44:01;;;;;;;;;;;20.20;85.70;;;;;;5116074;28;19952;-47
2023/01/20 05:46:26;;;;;;;;;;;20.10;86.00;;;;;;5115970;28;19915;-49
2023/01/20 05:48:52;;;;;;;;;;;20.00;86.30;;;;;;5116132;28;19939;-50
2023/01/20 05:51:17;;;;;;;;;;;19.80;86.40;;;;;;5115959;28;19964;-49
2023/01/20 05:53:43;;;;;;;;;;;19.80;86.60;;;;;;5116258;28;19954;-45
2023/01/20 05:56:10;;;;;;;;;;;19.70;86.80;;;;;;5116502;28;20294;-49
2023/01/20 05:58:36;;;;;;;;;;;19.60;86.80;;;;;;5115652;28;20354;-44
2023/01/20 06:01:09;;;;;;;;;;;19.60;87.00;;;;;;5116036;28;19908;-45
2023/01/20 06:03:35;;;;;;;;;;;19.50;87.00;;;;;;5115839;28;19968;-45
2023/01/20 06:06:01;;;;;;;;;;;19.50;87.10;;;;;;5115991;28;19907;-47
2023/01/20 06:08:27;;;;;;;;;;;19.40;87.30;;;;;;5116160;28;20377;-47
2023/01/20 06:10:53;;;;;;;;;;;19.30;87.30;;;;;;5115795;28;19955;-45
2023/01/20 06:13:18;;;;;;;;;;;19.30;87.30;;;;;;5115501;28;19912;-46
2023/01/20 06:15:43;;;;;;;;;;;19.30;87.50;;;;;;5115466;28;19962;-47
2023/01/20 06:18:11;;;;;;;;;;;19.20;87.50;;;;;;5115649;28;19907;-46
2023/01/20 06:20:37;;;;;;;;;;;19.20;87.60;;;;;;5115615;28;19908;-47
2023/01/20 06:23:03;;;;;;;;;;;19.10;87.60;;;;;;5115216;28;20326;-46
2023/01/20 06:25:28;;;;;;;;;;;19.10;87.70;;;;;;5115039;28;20477;-50
2023/01/20 06:27:53;;;;;;;;;;;19.10;87.80;;;;;;5115248;28;19907;-46
2023/01/20 06:30:19;;;;;;;;;;;19.00;88.00;;;;;;5097218;28;20020;-46
2023/01/20 06:32:45;;;;;;;;;;;19.00;88.00;;;;;;5115021;28;19922;-48
2023/01/20 06:35:11;;;;;;;;;;;19.00;88.00;;;;;;5115312;28;19914;-49
2023/01/20 06:37:36;;;;;;;;;;;19.00;87.90;;;;;;5115369;28;19924;-48
2023/01/20 06:40:02;;;;;;;;;;;18.90;87.90;;;;;;5114979;28;19908;-49
2023/01/20 06:42:29;;;;;;;;;;;18.90;88.10;;;;;;5115019;28;19908;-48
2023/01/20 06:44:55;;;;;;;;;;;19.00;88.10;;;;;;5114838;28;19908;-45
2023/01/20 06:47:20;;;;;;;;;;;18.90;88.10;;;;;;5096731;28;19953;-48
2023/01/20 06:49:45;;;;;;;;;;;18.90;88.20;;;;;;5115164;28;20320;-48
2023/01/20 06:52:11;;;;;;;;;;;19.00;88.20;;;;;;5114787;28;19981;-44
2023/01/20 06:54:36;;;;;;;;;;;18.90;88.20;;;;;;5096535;28;19911;-47
2023/01/20 06:57:02;;;;;;;;;;;19.00;88.20;;;;;;5114366;28;20307;-47
2023/01/20 06:59:27;;;;;;;;;;;19.00;88.00;;;;;;5115027;28;20006;-45
2023/01/20 07:01:53;;;;;;;;;;;19.10;87.80;;;;;;5114675;28;19912;-50
2023/01/20 07:04:18;;;;;;;;;;;19.20;87.60;;;;;;5096501;28;20343;-44
2023/01/20 07:06:44;;;;;;;;;;;19.20;87.40;;;;;;5114862;28;19908;-44
2023/01/20 07:09:10;;;;;;;;;;;19.10;87.30;;;;;;5114742;28;19908;-46
2023/01/20 07:11:36;;;;;;;;;;;19.10;87.30;;;;;;5114573;28;19916;-44
2023/01/20 07:14:02;;;;;;;;;;;19.10;87.30;;;;;;5114469;28;19939;-47
2023/01/20 07:16:27;;;;;;;;;;;19.10;87.30;;;;;;5096046;28;20362;-47
2023/01/20 07:18:53;;;;;;;;;;;19.10;87.30;;;;;;5114365;28;19908;-51
2023/01/20 07:21:19;;;;;;;;;;;19.10;87.40;;;;;;5114176;28;19953;-46
2023/01/20 07:23:44;;;;;;;;;;;19.00;87.40;;;;;;5114182;28;19915;-45
2023/01/20 07:26:11;;;;;;;;;;;19.00;87.50;;;;;;5114454;28;19908;-51
2023/01/20 07:28:37;;;;;;;;;;;19.00;87.50;;;;;;5114551;28;19908;-49
2023/01/20 07:31:10;;;;;;;;;;;18.90;87.60;;;;;;5114164;28;19935;-46
2023/01/20 07:33:36;;;;;;;;;;;18.90;87.60;;;;;;5113690;28;20318;-46
2023/01/20 07:36:01;;;;;;;;;;;18.90;87.70;;;;;;5114164;28;19908;-46
2023/01/20 07:38:27;;;;;;;;;;;18.90;87.80;;;;;;5114743;28;20007;-45
2023/01/20 07:40:56;;;;;;;;;;;18.80;87.70;;;;;;5113980;28;19915;-45
2023/01/20 07:43:21;;;;;;;;;;;18.80;87.80;;;;;;5113978;28;20351;-47
2023/01/20 07:45:46;;;;;;;;;;;18.80;87.90;;;;;;5114174;28;20018;-48
2023/01/20 07:48:12;;;;;;;;;;;18.70;87.90;;;;;;5114345;28;20011;-46
2023/01/20 07:50:37;;;;;;;;;;;18.70;87.90;;;;;;5114452;28;19908;-47
2023/01/20 07:53:03;;;;;;;;;;;18.70;88.00;;;;;;5114267;28;19912;-46
2023/01/20 07:55:28;;;;;;;;;;;18.70;88.00;;;;;;5114374;28;19908;-50
2023/01/20 07:57:55;;;;;;;;;;;18.70;88.10;;;;;;5114029;28;20378;-47
2023/01/20 08:00:20;;;;;;;;;;;18.70;88.20;;;;;;5113947;28;19908;-46
2023/01/20 08:02:46;;;;;;;;;;;18.60;88.10;;;;;;5114453;28;19933;-47
2023/01/20 08:05:11;;;;;;;;;;;18.70;88.10;;;;;;5095823;28;19908;-47
2023/01/20 08:07:37;;;;;;;;;;;18.70;88.10;;;;;;5114053;28;19908;-46
2023/01/20 08:10:03;;;;;;;;;;;18.70;88.00;;;;;;5113892;28;19931;-45
2023/01/20 08:12:28;;;;;;;;;;;18.90;87.80;;;;;;5114016;28;19912;-46
2023/01/20 08:14:54;;;;;;;;;;;19.10;87.30;;;;;;5113754;28;20349;-47
2023/01/20 08:17:19;;;;;;;;;;;19.30;86.70;;;;;;5113748;28;19912;-48
2023/01/20 08:19:45;;;;;;;;;;;19.40;86.30;;;;;;5114253;28;20371;-45
2023/01/20 08:22:10;;;;;;;;;;;19.40;86.00;;;;;;5113852;28;19931;-46
2023/01/20 08:24:36;;;;;;;;;;;19.40;85.90;;;;;;5114373;28;19966;-50
2023/01/20 08:27:01;;;;;;;;;;;19.40;86.00;;;;;;5113990;28;19916;-44
2023/01/20 08:29:26;;;;;;;;;;;19.40;86.10;;;;;;5114307;28;19908;-49
2023/01/20 08:31:52;;;;;;;;;;;19.30;86.10;;;;;;5113744;28;20413;-48
2023/01/20 08:34:19;;;;;;;;;;;19.30;86.40;;;;;;5116944;28;19912;-47
2023/01/20 08:36:45;;;;;;;;;;;19.30;86.40;;;;;;5117522;28;19950;-47
2023/01/20 08:39:12;;;;;;;;;;;19.20;86.50;;;;;;5117405;28;19924;-50
2023/01/20 08:41:40;;;;;;;;;;;19.10;86.60;;;;;;5117352;28;19909;-45
2023/01/20 08:44:06;;;;;;;;;;;19.10;86.70;;;;;;5117545;28;19911;-50
2023/01/20 08:46:32;;;;;;;;;;;19.00;86.70;;;;;;5099177;28;19955;-48
2023/01/20 08:48:57;;;;;;;;;;;19.00;86.80;;;;;;5117096;28;19908;-48
2023/01/20 08:51:27;;;;;;;;;;;18.90;86.90;;;;;;5117656;28;19956;-46
2023/01/20 08:53:53;;;;;;;;;;;18.90;87.00;;;;;;5098873;28;20042;-51
2023/01/20 08:56:19;;;;;;;;;;;18.90;87.00;;;;;;5117204;28;19935;-47
2023/01/20 08:58:44;;;;;;;;;;;18.90;87.20;;;;;;5116990;28;19908;-47
2023/01/20 09:01:12;;;;;;;;;;;18.80;87.20;;;;;;5117282;28;19927;-46
2023/01/20 09:03:38;;;;;;;;;;;18.80;87.30;;;;;;5116722;28;19908;-45
2023/01/20 09:06:05;;;;;;;;;;;18.80;87.40;;;;;;5117072;28;19916;-45
2023/01/20 09:08:31;;;;;;;;;;;18.70;87.40;;;;;;5116813;28;19908;-46
2023/01/20 09:11:06;;;;;;;;;;;18.70;87.50;;;;;;5116968;28;20239;-46
2023/01/20 09:13:32;;;;;;;;;;;18.70;87.20;;;;;;5116934;28;20403;-46
2023/01/20 09:15:57;;;;;;;;;;;18.70;87.10;;;;;;5116593;28;19951;-47
2023/01/20 09:18:23;;;;;;;;;;;18.70;87.20;;;;;;5116567;28;19908;-44
2023/01/20 09:20:48;;;;;;;;;;;18.70;87.40;;;;;;5116660;28;20215;-48
2023/01/20 09:23:14;;;;;;;;;;;18.70;87.50;;;;;;5098507;28;19908;-44
2023/01/20 09:25:39;;;;;;;;;;;18.70;87.70;;;;;;5116519;28;20393;-45
2023/01/20 09:28:05;;;;;;;;;;;18.70;87.70;;;;;;5116474;28;19907;-46
2023/01/20 09:30:30;;;;;;;;;;;18.70;87.60;;;;;;5116295;28;19908;-45
2023/01/20 09:32:59;;;;;;;;;;;18.80;87.40;;;;;;5116915;28;20320;-44
2023/01/20 09:35:24;;;;;;;;;;;18.90;87.10;;;;;;5113608;28;19961;-48
2023/01/20 09:43:54;;;;;;;;;;;19.00;86.70;;;;;;5090245;28;20416;-45
2023/01/20 09:46:27;;;;;;;;;;;19.00;86.50;;;;;;5098544;28;19920;-44
2023/01/20 09:54:42;;;;;;;;;;;18.90;86.70;;;;;;5106063;28;19937;-48
2023/01/20 09:57:09;;;;;;;;;;;18.90;86.80;;;;;;5096137;28;20050;-47
2023/01/20 09:59:36;;;;;;;;;;;18.90;86.90;;;;;;5095079;28;20279;-45
2023/01/20 10:02:05;;;;;;;;;;;18.80;87.00;;;;;;5095250;28;19908;-47
2023/01/20 10:04:35;;;;;;;;;;;18.80;87.20;;;;;;5107784;28;19911;-45
2023/01/20 10:07:15;;;;;;;;;;;18.80;87.20;;;;;;5101854;28;19934;-46
2023/01/20 10:09:43;;;;;;;;;;;18.80;87.30;;;;;;5100661;28;19959;-49
2023/01/20 10:12:19;;;;;;;;;;;18.80;87.30;;;;;;5095146;28;19916;-46
2023/01/20 10:14:47;;;;;;;;;;;18.70;87.40;;;;;;5095126;28;19919;-45
2023/01/20 10:17:24;;;;;;;;;;;18.70;87.50;;;;;;5097273;28;19950;-46
2023/01/20 10:19:55;;;;;;;;;;;18.70;87.60;;;;;;5103259;28;19957;-46
2023/01/20 10:22:26;;;;;;;;;;;18.70;87.70;;;;;;5094980;28;19908;-49
2023/01/20 10:24:57;;;;;;;;;;;18.70;87.80;;;;;;5094204;28;20002;-50
2023/01/20 10:27:24;;;;;;;;;;;18.70;87.40;;;;;;5113390;28;19912;-49
2023/01/20 10:29:53;;;;;;;;;;;18.70;87.80;;;;;;5111890;28;19908;-46
2023/01/20 10:32:26;;;;;;;;;;;18.60;88.40;;;;;;5105263;28;20358;-47
2023/01/20 10:34:53;;;;;;;;;;;18.60;87.90;;;;;;5093751;28;19916;-50
2023/01/20 10:37:20;;;;;;;;;;;18.60;87.90;;;;;;5074976;28;20239;-50
2023/01/20 10:39:48;;;;;;;;;;;18.70;87.90;;;;;;5092923;28;20390;-48
2023/01/20 10:42:15;;;;;;;;;;;18.70;87.70;;;;;;5092085;28;19908;-48
2023/01/20 10:44:41;;;;;;;;;;;18.80;87.50;;;;;;5075269;28;20300;-51
2023/01/20 10:47:12;;;;;;;;;;;18.80;87.30;;;;;;5092516;28;19957;-50
2023/01/20 10:49:52;;;;;;;;;;;18.80;87.20;;;;;;5074157;28;19948;-47
2023/01/20 10:52:43;;;;;;;;;;;18.80;87.20;;;;;;5076835;28;19947;-47
2023/01/20 10:55:18;;;;;;;;;;;18.80;87.10;;;;;;5045710;28;19923;-52
2023/01/20 10:57:46;;;;;;;;;;;18.80;87.60;;;;;;5092153;28;19908;-47
2023/01/20 11:00:23;;;;;;;;;;;18.80;87.10;;;;;;5093910;28;19912;-49
2023/01/20 11:02:49;;;;;;;;;;;18.80;87.10;;;;;;5091840;28;20002;-48
2023/01/20 11:05:24;;;;;;;;;;;18.80;87.20;;;;;;5096282;28;20065;-52
2023/01/20 11:07:51;;;;;;;;;;;18.80;87.20;;;;;;5109939;28;19909;-46
2023/01/20 11:10:17;;;;;;;;;;;18.70;87.30;;;;;;5110662;28;19916;-49
2023/01/20 11:12:43;;;;;;;;;;;18.70;87.30;;;;;;5107458;28;19957;-48
2023/01/20 11:15:38;;;;;;;;;;;18.70;87.40;;;;;;5093046;28;19920;-50
2023/01/20 11:18:15;;;;;;;;;;;18.70;87.50;;;;;;5088101;28;20006;-48
2023/01/20 11:20:43;;;;;;;;;;;18.60;87.50;;;;;;5101638;28;19908;-47
2023/01/20 11:23:29;;;;;;;;;;;18.60;86.00;;;;;;5092127;28;20319;-52
2023/01/20 11:25:59;;;;;;;;;;;18.60;87.30;;;;;;5093603;28;19908;-49
2023/01/20 11:28:25;;;;;;;;;;;18.60;87.40;;;;;;5093504;28;20472;-48
2023/01/20 11:30:52;;;;;;;;;;;18.50;87.40;;;;;;5093965;28;20034;-52
2023/01/20 11:33:25;;;;;;;;;;;18.50;87.40;;;;;;5093563;28;19963;-48
2023/01/20 11:36:00;;;;;;;;;;;18.50;87.50;;;;;;5092453;28;19955;-48
2023/01/20 11:38:26;;;;;;;;;;;18.50;87.50;;;;;;5111780;28;19908;-49
2023/01/20 11:40:53;;;;;;;;;;;18.50;87.40;;;;;;5091581;28;19912;-48
2023/01/20 11:43:33;;;;;;;;;;;18.60;87.40;;;;;;5101954;28;19913;-50
2023/01/20 11:46:08;;;;;;;;;;;18.60;87.30;;;;;;5092103;28;19916;-51
2023/01/20 11:48:34;;;;;;;;;;;18.70;87.20;;;;;;5091251;28;19920;-51
2023/01/20 11:51:00;;;;;;;;;;;18.70;86.90;;;;;;5065837;28;20012;-49
2023/01/20 11:53:27;;;;;;;;;;;18.80;86.70;;;;;;5093075;28;19924;-49
2023/01/20 11:56:04;;;;;;;;;;;18.80;86.60;;;;;;5091968;28;19912;-49
2023/01/20 11:58:46;;;;;;;;;;;18.80;86.50;;;;;;5090925;28;19912;-51
2023/01/20 12:01:18;;;;;;;;;;;18.80;86.60;;;;;;5111231;28;19912;-47
2023/01/20 12:03:49;;;;;;;;;;;18.80;86.60;;;;;;5113700;28;19919;-49
2023/01/20 12:06:22;;;;;;;;;;;18.80;86.70;;;;;;5101034;28;19991;-52
2023/01/20 12:08:57;;;;;;;;;;;18.70;86.70;;;;;;5089886;28;19912;-51
2023/01/20 12:11:31;;;;;;;;;;;18.70;86.80;;;;;;5092173;28;19912;-50
2023/01/20 12:14:23;;;;;;;;;;;18.70;87.00;;;;;;5059140;28;19931;-52
2023/01/20 12:16:56;;;;;;;;;;;18.70;87.00;;;;;;5083683;28;19923;-53
2023/01/20 12:19:26;;;;;;;;;;;18.60;87.10;;;;;;5112747;28;19912;-50
2023/01/20 12:21:53;;;;;;;;;;;18.60;87.20;;;;;;5108966;28;20333;-48
2023/01/20 12:24:26;;;;;;;;;;;18.60;87.70;;;;;;5117940;28;19912;-53
2023/01/20 12:26:52;;;;;;;;;;;18.50;87.20;;;;;;5105816;28;19950;-52
2023/01/20 12:29:17;;;;;;;;;;;18.50;87.20;;;;;;5107752;28;19917;-49
2023/01/20 12:31:47;;;;;;;;;;;18.50;87.40;;;;;;5116704;28;19985;-53
2023/01/20 12:34:32;;;;;;;;;;;18.50;87.40;;;;;;5083697;28;19919;-50
2023/01/20 12:36:58;;;;;;;;;;;18.50;87.30;;;;;;5094509;28;20559;-49
2023/01/20 12:39:23;;;;;;;;;;;18.50;87.20;;;;;;5102649;28;19912;-51
2023/01/20 12:41:52;;;;;;;;;;;18.50;87.20;;;;;;5077459;28;19920;-50
2023/01/20 12:44:31;;;;;;;;;;;18.60;87.10;;;;;;5115005;28;19916;-51
2023/01/20 12:47:09;;;;;;;;;;;18.70;86.90;;;;;;5115139;28;19916;-51
2023/01/20 12:49:36;;;;;;;;;;;18.80;86.50;;;;;;5105687;28;20146;-48
2023/01/20 12:52:05;;;;;;;;;;;18.90;86.30;;;;;;5096703;28;19955;-48
2023/01/20 12:54:48;;;;;;;;;;;18.90;86.40;;;;;;5099565;28;19958;-51
2023/01/20 12:57:17;;;;;;;;;;;18.90;86.10;;;;;;5107715;28;19916;-51
2023/01/20 12:59:49;;;;;;;;;;;18.90;86.20;;;;;;5102931;28;21520;-52
2023/01/20 13:02:15;;;;;;;;;;;18.90;86.20;;;;;;5076425;28;19938;-52
2023/01/20 13:05:19;;;;;;;;;;;18.80;86.20;;;;;;5107278;28;20270;-50
2023/01/20 13:07:51;;;;;;;;;;;18.80;86.40;;;;;;5013985;28;20004;-49
2023/01/20 13:10:22;;;;;;;;;;;18.70;86.50;;;;;;5006419;28;19917;-50
2023/01/20 13:12:56;;;;;;;;;;;18.70;86.60;;;;;;5053376;28;19927;-50
2023/01/20 13:15:29;;;;;;;;;;;18.70;86.70;;;;;;5106604;28;19955;-50
2023/01/20 13:18:02;;;;;;;;;;;18.60;86.70;;;;;;5105302;28;19912;-48
2023/01/20 13:20:29;;;;;;;;;;;18.60;86.90;;;;;;5101616;28;19920;-51
2023/01/20 13:22:55;;;;;;;;;;;18.60;87.00;;;;;;5095143;28;19908;-49
2023/01/20 13:25:21;;;;;;;;;;;18.50;87.00;;;;;;5075638;28;19999;-48
2023/01/20 13:27:46;;;;;;;;;;;18.50;87.00;;;;;;5092750;28;19916;-52
2023/01/20 13:30:31;;;;;;;;;;;18.50;87.00;;;;;;5095891;28;19912;-50
2023/01/20 13:33:03;;;;;;;;;;;18.50;87.10;;;;;;5105432;28;20316;-47
2023/01/20 13:35:29;;;;;;;;;;;18.50;87.10;;;;;;5113497;28;19916;-50
2023/01/20 13:37:56;;;;;;;;;;;18.50;87.10;;;;;;5098624;28;20351;-50
2023/01/20 13:40:37;;;;;;;;;;;18.50;87.10;;;;;;5095579;28;20484;-51
2023/01/20 13:43:02;;;;;;;;;;;18.60;87.00;;;;;;5095533;28;19947;-52
2023/01/20 13:45:28;;;;;;;;;;;18.60;86.90;;;;;;5100573;28;19958;-49
2023/01/20 13:47:58;;;;;;;;;;;18.60;86.80;;;;;;5077568;28;19927;-51
2023/01/20 13:50:28;;;;;;;;;;;18.70;86.80;;;;;;5101953;28;19912;-50
2023/01/20 13:52:57;;;;;;;;;;;18.70;86.60;;;;;;5093422;28;19957;-50
2023/01/20 13:55:29;;;;;;;;;;;18.70;86.60;;;;;;5082368;28;19920;-50
2023/01/20 13:57:55;;;;;;;;;;;18.70;86.50;;;;;;5102963;28;20002;-46
2023/01/20 14:00:20;;;;;;;;;;;18.60;86.50;;;;;;5101850;28;20022;-51
2023/01/20 14:02:46;;;;;;;;;;;18.60;86.60;;;;;;5077041;28;19916;-49
2023/01/20 14:05:22;;;;;;;;;;;18.60;86.70;;;;;;5093831;28;19912;-48
2023/01/20 14:07:48;;;;;;;;;;;18.50;86.70;;;;;;5099014;28;19916;-50
2023/01/20 14:10:13;;;;;;;;;;;18.50;86.70;;;;;;5093456;28;20560;-48
2023/01/20 14:12:39;;;;;;;;;;;18.50;86.70;;;;;;5075919;28;19916;-47
2023/01/20 14:15:05;;;;;;;;;;;18.50;86.70;;;;;;5106678;28;19916;-49
2023/01/20 14:17:30;;;;;;;;;;;18.50;86.70;;;;;;5106920;28;19937;-48
2023/01/20 14:19:56;;;;;;;;;;;18.50;86.90;;;;;;5099280;28;19947;-50
2023/01/20 14:22:23;;;;;;;;;;;18.40;86.90;;;;;;5094773;28;19912;-51
2023/01/20 14:24:51;;;;;;;;;;;18.40;86.90;;;;;;5105039;28;20284;-49
2023/01/20 14:27:17;;;;;;;;;;;18.40;87.00;;;;;;5114978;28;19934;-50
2023/01/20 14:29:44;;;;;;;;;;;18.40;87.00;;;;;;5095111;28;19920;-47
2023/01/20 14:32:16;;;;;;;;;;;18.50;87.00;;;;;;5094010;28;19957;-52
2023/01/20 14:34:41;;;;;;;;;;;18.50;86.90;;;;;;5094523;28;19951;-48